createdAt,value
2018-02-06T00:00:21.107Z,85.55
2018-02-06T00:02:47.405Z,85.44
2018-02-06T00:05:13.376Z,85.32
2018-02-06T00:07:39.398Z,85.15
2018-02-06T00:10:05.492Z,85.18
2018-02-06T00:12:31.513Z,85.41
2018-02-06T00:14:57.481Z,85.39
2018-02-06T00:17:23.525Z,85.32
2018-02-06T00:19:49.606Z,84.87
2018-02-06T00:22:15.641Z,84.99
2018-02-06T00:24:41.664Z,84.81
2018-02-06T00:27:07.806Z,84.60
2018-02-06T00:29:33.792Z,84.49
2018-02-06T00:31:59.816Z,84.44
2018-02-06T00:34:25.868Z,84.30
2018-02-06T00:36:51.939Z,84.41
2018-02-06T00:39:18.097Z,84.41
2018-02-06T00:41:44.053Z,84.51
2018-02-06T00:44:10.072Z,84.81
2018-02-06T00:46:36.196Z,84.90
2018-02-06T00:49:02.245Z,84.72
2018-02-06T00:51:28.326Z,85.06
2018-02-06T00:53:54.356Z,85.05
2018-02-06T00:56:20.508Z,85.04
2018-02-06T00:58:46.522Z,84.90
2018-02-06T01:01:12.913Z,84.98
2018-02-06T01:03:38.899Z,84.97
2018-02-06T01:06:04.928Z,85.02
2018-02-06T01:08:30.940Z,84.62
2018-02-06T01:10:56.950Z,84.89
2018-02-06T01:13:22.912Z,84.91
2018-02-06T01:15:48.933Z,85.05
2018-02-06T01:18:14.916Z,84.87
2018-02-06T01:20:40.863Z,84.78
2018-02-06T01:23:06.953Z,84.56
2018-02-06T01:25:32.979Z,84.26
2018-02-06T01:27:59.036Z,84.42
2018-02-06T01:30:25.049Z,84.41
2018-02-06T01:32:51.073Z,84.35
2018-02-06T01:35:17.114Z,84.58
2018-02-06T01:37:43.149Z,84.72
2018-02-06T01:40:09.113Z,84.83
2018-02-06T01:42:35.103Z,84.69
2018-02-06T01:45:01.218Z,84.61
2018-02-06T01:47:27.230Z,84.80
2018-02-06T01:50:04.325Z,84.83
2018-02-06T01:52:30.372Z,84.50
2018-02-06T01:54:56.412Z,84.40
2018-02-06T01:57:22.435Z,84.17
2018-02-06T01:59:48.393Z,84.34
2018-02-06T02:02:14.416Z,84.65
2018-02-06T02:04:40.500Z,84.63
2018-02-06T02:07:06.489Z,84.61
2018-02-06T02:09:32.543Z,84.52
2018-02-06T02:11:58.553Z,84.42
2018-02-06T02:14:24.593Z,84.06
2018-02-06T02:16:50.585Z,84.37
2018-02-06T02:19:16.636Z,84.16
2018-02-06T02:21:42.649Z,84.05
2018-02-06T02:24:08.673Z,84.50
2018-02-06T02:26:34.709Z,85.71
2018-02-06T02:29:00.739Z,85.39
2018-02-06T02:31:26.780Z,84.76
2018-02-06T02:33:52.816Z,84.58
2018-02-06T02:36:18.843Z,84.19
2018-02-06T02:38:44.900Z,84.57
2018-02-06T02:41:10.924Z,84.08
2018-02-06T04:40:24.033Z,85.89
2018-02-06T04:42:50.061Z,85.35
2018-02-06T04:45:16.097Z,85.49
2018-02-06T04:47:42.148Z,86.15
2018-02-06T04:50:08.153Z,86.00
2018-02-06T04:52:34.180Z,85.50
2018-02-06T04:55:00.280Z,85.24
2018-02-06T04:57:26.305Z,85.04
2018-02-06T04:59:52.380Z,85.32
2018-02-06T05:02:18.432Z,86.02
2018-02-06T05:04:44.450Z,85.94
2018-02-06T05:07:10.473Z,85.13
2018-02-06T05:09:36.485Z,85.24
2018-02-06T05:12:02.500Z,85.04
2018-02-06T05:14:28.496Z,85.76
2018-02-06T05:16:54.515Z,85.05
2018-02-06T05:19:20.594Z,86.18
2018-02-06T05:21:46.606Z,86.55
2018-02-06T05:24:12.644Z,86.31
2018-02-06T05:26:38.681Z,85.93
2018-02-06T05:29:04.697Z,85.71
2018-02-06T05:31:30.739Z,85.63
2018-02-06T05:33:56.788Z,85.28
2018-02-06T05:36:22.798Z,84.85
2018-02-06T05:38:48.944Z,85.29
2018-02-06T05:41:14.972Z,85.23
2018-02-06T05:43:40.979Z,85.06
2018-02-06T05:46:07.070Z,85.04
2018-02-06T05:48:33.134Z,84.63
2018-02-06T05:50:59.120Z,84.45
2018-02-06T05:53:25.124Z,84.35
2018-02-06T05:55:51.168Z,84.45
2018-02-06T05:58:17.353Z,84.28
2018-02-06T06:00:43.441Z,84.38
2018-02-06T06:03:09.441Z,84.28
2018-02-06T06:05:35.490Z,84.32
2018-02-06T06:08:01.464Z,84.23
2018-02-06T06:10:27.465Z,85.35
2018-02-06T06:12:53.496Z,86.20
2018-02-06T06:15:19.517Z,86.34
2018-02-06T06:17:45.604Z,86.26
2018-02-06T06:20:11.629Z,85.88
2018-02-06T06:22:37.794Z,85.73
2018-02-06T06:25:03.995Z,85.34
2018-02-06T06:27:30.030Z,85.57
2018-02-06T06:29:56.129Z,85.76
2018-02-06T06:32:22.177Z,85.50
2018-02-06T06:34:48.220Z,86.41
2018-02-06T06:37:14.376Z,86.44
2018-02-06T06:39:40.464Z,86.70
2018-02-06T06:42:06.493Z,86.35
2018-02-06T06:44:32.525Z,86.76
2018-02-06T06:46:58.681Z,86.68
2018-02-06T06:49:24.703Z,86.35
2018-02-06T06:51:50.744Z,85.91
2018-02-06T06:54:16.855Z,85.58
2018-02-06T06:56:42.833Z,85.40
2018-02-06T06:59:08.819Z,85.38
2018-02-06T07:01:34.912Z,85.17
2018-02-06T07:04:00.965Z,86.29
2018-02-06T07:06:27.065Z,86.40
2018-02-06T07:08:53.015Z,86.26
2018-02-06T07:11:19.032Z,86.76
2018-02-06T07:13:45.030Z,87.04
2018-02-06T07:16:11.087Z,87.18
2018-02-06T07:18:37.226Z,86.83
2018-02-06T07:21:03.285Z,86.82
2018-02-06T07:23:29.281Z,86.99
2018-02-06T07:25:55.288Z,86.67
2018-02-06T07:28:21.322Z,86.45
2018-02-06T07:30:47.353Z,86.08
2018-02-06T07:33:13.677Z,86.27
2018-02-06T07:35:39.686Z,86.31
2018-02-06T07:38:05.744Z,85.73
2018-02-06T07:40:31.752Z,85.82
2018-02-06T07:42:57.733Z,85.79
2018-02-06T07:45:23.823Z,85.76
2018-02-06T07:47:49.874Z,85.54
2018-02-06T07:50:15.835Z,85.56
2018-02-06T07:52:41.853Z,85.35
2018-02-06T07:55:07.880Z,85.44
2018-02-06T07:57:33.885Z,85.37
2018-02-06T07:59:59.941Z,85.46
2018-02-06T08:02:25.883Z,85.40
2018-02-06T08:04:51.900Z,85.27
2018-02-06T08:07:17.942Z,85.15
2018-02-06T08:09:43.937Z,85.09
2018-02-06T08:12:09.920Z,85.03
2018-02-06T08:14:35.952Z,85.18
2018-02-06T08:17:01.992Z,84.81
2018-02-06T08:19:28.040Z,84.76
2018-02-06T08:21:54.125Z,84.74
2018-02-06T08:24:20.193Z,84.48
2018-02-06T08:26:46.217Z,83.83
2018-02-06T08:29:12.228Z,83.50
2018-02-06T08:31:38.248Z,82.99
2018-02-06T08:34:04.275Z,82.82
2018-02-06T08:36:30.353Z,82.34
2018-02-06T08:38:56.308Z,82.07
2018-02-06T08:41:22.337Z,81.30
2018-02-06T08:43:48.845Z,80.79
2018-02-06T08:46:14.829Z,80.76
2018-02-06T08:48:40.897Z,81.55
2018-02-06T08:51:06.926Z,81.00
2018-02-06T08:53:32.957Z,80.54
2018-02-06T08:55:58.960Z,81.31
2018-02-06T08:58:24.963Z,81.17
2018-02-06T09:00:51.242Z,81.33
2018-02-06T09:03:17.292Z,80.57
2018-02-06T09:05:43.296Z,80.45
2018-02-06T09:08:09.324Z,81.04
2018-02-06T09:10:35.329Z,80.34
2018-02-06T09:13:01.371Z,80.61
2018-02-06T09:15:27.394Z,80.50
2018-02-06T09:17:53.441Z,80.55
2018-02-06T09:20:19.457Z,80.36
2018-02-06T09:22:45.488Z,80.16
2018-02-06T09:25:11.574Z,79.64
2018-02-06T09:27:37.576Z,78.75
2018-02-06T09:30:03.697Z,78.80
2018-02-06T09:32:29.720Z,78.80
2018-02-06T09:34:55.762Z,78.81
2018-02-06T09:37:21.793Z,78.66
2018-02-06T09:39:47.793Z,78.53
2018-02-06T09:42:13.853Z,78.33
2018-02-06T09:44:39.921Z,78.44
2018-02-06T09:47:05.944Z,77.70
2018-02-06T09:49:31.949Z,77.37
2018-02-06T09:51:58.086Z,77.46
2018-02-06T09:54:24.440Z,77.13
2018-02-06T09:56:50.493Z,77.40
2018-02-06T09:59:16.655Z,77.65
2018-02-06T10:01:42.622Z,76.89
2018-02-06T10:04:08.631Z,77.85
2018-02-06T10:06:34.647Z,77.09
2018-02-06T10:09:00.721Z,77.37
2018-02-06T10:11:26.764Z,77.45
2018-02-06T10:13:52.780Z,76.78
2018-02-06T10:16:18.761Z,77.22
2018-02-06T10:18:44.769Z,76.77
2018-02-06T10:21:10.801Z,76.47
2018-02-06T10:23:36.868Z,76.28
2018-02-06T10:26:02.854Z,76.86
2018-02-06T10:28:29.292Z,75.98
2018-02-06T10:30:55.308Z,74.59
2018-02-06T10:33:21.311Z,74.54
2018-02-06T10:35:54.427Z,74.09
2018-02-06T10:38:20.443Z,74.88
2018-02-06T10:40:46.444Z,75.58
2018-02-06T10:43:12.524Z,74.45
2018-02-06T10:45:38.934Z,74.47
2018-02-06T10:48:04.956Z,74.08
2018-02-06T10:50:30.946Z,74.16
2018-02-06T10:52:57.022Z,74.12
2018-02-06T10:55:23.036Z,74.11
2018-02-06T10:57:49.069Z,73.65
2018-02-06T11:00:15.078Z,72.47
2018-02-06T11:02:41.427Z,71.59
2018-02-06T11:05:07.431Z,71.01
2018-02-06T11:07:33.439Z,70.66
2018-02-06T11:09:59.520Z,69.61
2018-02-06T11:12:25.552Z,69.97
2018-02-06T11:14:51.953Z,70.35
2018-02-06T11:17:17.999Z,70.02
2018-02-06T11:19:44.087Z,70.38
2018-02-06T11:22:10.124Z,67.50
2018-02-06T11:24:36.137Z,68.34
2018-02-06T11:27:02.590Z,68.37
2018-02-06T11:29:28.599Z,68.76
2018-02-06T11:31:54.700Z,68.26
2018-02-06T11:34:20.733Z,67.76
2018-02-06T11:36:46.804Z,67.04
2018-02-06T11:39:13.215Z,67.53
2018-02-06T11:41:39.228Z,68.54
2018-02-06T11:44:05.224Z,68.31
2018-02-06T11:46:31.340Z,68.68
2018-02-06T11:48:57.286Z,69.15
2018-02-06T11:51:23.633Z,67.90
2018-02-06T11:53:49.612Z,68.20
2018-02-06T11:56:15.656Z,67.70
2018-02-06T11:58:41.685Z,67.80
2018-02-06T12:01:07.755Z,67.75
2018-02-06T12:03:34.207Z,68.62
2018-02-06T12:06:00.180Z,68.60
2018-02-06T12:08:26.205Z,67.58
2018-02-06T12:10:52.240Z,66.80
2018-02-06T12:13:18.280Z,67.20
2018-02-06T12:15:44.853Z,67.26
2018-02-06T12:18:10.898Z,66.60
2018-02-06T12:20:36.912Z,67.03
2018-02-06T12:23:02.963Z,67.39
2018-02-06T12:25:28.953Z,66.84
2018-02-06T12:27:55.309Z,66.57
2018-02-06T12:30:21.350Z,64.95
2018-02-06T12:32:47.360Z,64.21
2018-02-06T12:35:14.263Z,63.85
2018-02-06T12:37:40.296Z,62.48
2018-02-06T12:40:06.727Z,62.91
2018-02-06T12:42:32.799Z,63.41
2018-02-06T12:44:58.805Z,63.96
2018-02-06T12:47:24.893Z,64.02
2018-02-06T12:49:50.911Z,63.78
2018-02-06T12:52:16.980Z,62.78
2018-02-06T12:54:42.977Z,63.29
2018-02-06T12:57:09.029Z,62.48
2018-02-06T12:59:35.086Z,62.28
2018-02-06T13:02:01.107Z,61.81
2018-02-06T13:04:27.487Z,61.92
2018-02-06T13:06:53.511Z,61.67
2018-02-06T13:09:19.511Z,60.80
2018-02-06T13:11:45.555Z,60.22
2018-02-06T13:14:11.553Z,60.56
2018-02-06T13:16:37.564Z,61.71
2018-02-06T13:19:03.580Z,61.87
2018-02-06T13:21:29.970Z,61.45
2018-02-06T13:23:56.147Z,60.18
2018-02-06T13:26:22.169Z,61.04
2018-02-06T13:28:48.150Z,59.80
2018-02-06T13:31:14.175Z,59.28
2018-02-06T13:33:40.263Z,59.78
2018-02-06T13:36:06.264Z,60.71
2018-02-06T13:38:32.659Z,60.85
2018-02-06T13:40:58.688Z,60.55
2018-02-06T13:43:24.663Z,60.82
2018-02-06T13:45:50.723Z,61.01
2018-02-06T13:48:16.829Z,61.49
2018-02-06T13:50:43.246Z,60.48
2018-02-06T13:53:09.308Z,62.74
2018-02-06T13:55:35.385Z,63.98
2018-02-06T13:58:01.468Z,63.29
2018-02-06T14:00:27.581Z,63.36
2018-02-06T14:02:53.640Z,63.80
2018-02-06T14:05:19.668Z,63.62
2018-02-06T14:07:46.015Z,62.64
2018-02-06T14:10:12.021Z,63.07
2018-02-06T14:12:38.001Z,63.68
2018-02-06T14:15:04.064Z,63.54
2018-02-06T14:17:30.080Z,63.17
2018-02-06T14:19:56.133Z,62.57
2018-02-06T14:22:22.152Z,62.34
2018-02-06T14:24:48.587Z,62.59
2018-02-06T14:27:14.616Z,61.58
2018-02-06T14:29:40.669Z,60.62
2018-02-06T14:32:06.721Z,62.53
2018-02-06T14:34:32.753Z,62.77
2018-02-06T14:36:58.849Z,64.39
2018-02-06T14:39:24.804Z,64.78
2018-02-06T14:41:51.273Z,64.29
2018-02-06T14:44:17.446Z,64.76
2018-02-06T14:46:43.514Z,65.17
2018-02-06T14:49:09.634Z,66.37
2018-02-06T14:51:35.673Z,65.67
2018-02-06T14:54:01.652Z,65.86
2018-02-06T14:56:27.642Z,66.00
2018-02-06T14:58:53.641Z,66.32
2018-02-06T15:01:19.685Z,66.66
2018-02-06T15:03:46.108Z,66.73
2018-02-06T15:06:12.144Z,67.08
2018-02-06T15:08:38.241Z,67.37
2018-02-06T15:11:04.298Z,67.56
2018-02-06T15:13:30.340Z,67.60
2018-02-06T15:15:56.738Z,67.82
2018-02-06T15:18:22.752Z,69.03
2018-02-06T15:20:48.756Z,68.48
2018-02-06T15:23:14.822Z,69.14
2018-02-06T15:25:40.882Z,69.00
2018-02-06T15:28:06.852Z,69.61
2018-02-06T15:30:32.945Z,69.05
2018-02-06T15:32:58.984Z,69.49
2018-02-06T15:35:25.051Z,70.09
2018-02-06T15:37:51.096Z,70.03
2018-02-06T15:40:17.513Z,70.29
2018-02-06T15:42:43.843Z,70.45
2018-02-06T15:45:10.484Z,71.24
2018-02-06T15:47:36.508Z,71.84
2018-02-06T15:50:02.625Z,72.00
2018-02-06T15:52:28.629Z,71.56
2018-02-06T15:54:54.693Z,71.87
2018-02-06T15:57:20.844Z,72.30
2018-02-06T15:59:49.566Z,72.58
2018-02-06T16:02:15.725Z,72.45
2018-02-06T16:04:42.695Z,72.58
2018-02-06T16:07:08.980Z,72.91
2018-02-06T16:09:36.545Z,72.68
2018-02-06T16:14:35.993Z,73.42
2018-02-06T16:17:02.178Z,73.76
2018-02-06T16:19:28.398Z,74.16
2018-02-06T16:21:55.113Z,74.55
2018-02-06T16:24:21.266Z,74.14
2018-02-06T16:26:47.403Z,74.90
2018-02-06T16:29:13.560Z,74.72
2018-02-06T16:31:39.686Z,74.68
2018-02-06T16:34:05.782Z,74.99
2018-02-06T16:36:31.810Z,75.24
2018-02-06T16:38:58.438Z,75.35
2018-02-06T16:41:24.481Z,74.93
2018-02-06T16:43:50.531Z,74.62
2018-02-06T16:46:16.841Z,74.27
2018-02-06T16:48:42.922Z,74.48
2018-02-06T16:51:09.012Z,73.76
2018-02-06T16:53:35.324Z,74.46
2018-02-06T16:56:01.846Z,73.45
2018-02-06T16:58:27.922Z,73.65
2018-02-06T17:00:54.022Z,73.72
2018-02-06T17:03:20.109Z,73.15
2018-02-06T17:05:46.120Z,73.76
2018-02-06T17:08:12.549Z,73.83
2018-02-06T17:10:38.628Z,73.70
2018-02-06T17:13:04.761Z,73.70
2018-02-06T17:15:30.834Z,73.25
2018-02-06T17:17:56.886Z,73.44
2018-02-06T17:20:22.935Z,73.72
2018-02-06T17:22:49.077Z,73.20
2018-02-06T17:25:15.550Z,72.93
2018-02-06T17:27:41.597Z,73.39
2018-02-06T17:30:07.619Z,73.38
2018-02-06T17:32:33.653Z,73.40
2018-02-06T17:34:59.753Z,73.29
2018-02-06T17:37:25.798Z,73.19
2018-02-06T17:39:51.813Z,73.14
2018-02-06T17:42:17.910Z,73.24
2018-02-06T17:44:43.938Z,73.63
2018-02-06T17:47:10.377Z,73.08
2018-02-06T17:49:36.374Z,73.25
2018-02-06T17:52:02.374Z,73.71
2018-02-06T17:54:28.996Z,73.95
2018-02-06T17:56:55.169Z,73.58
2018-02-06T17:59:21.174Z,73.73
2018-02-06T18:01:47.279Z,73.76
2018-02-06T18:04:13.355Z,73.95
2018-02-06T18:06:39.805Z,74.08
2018-02-06T18:09:05.897Z,73.58
2018-02-06T18:11:31.980Z,73.38
2018-02-06T18:13:58.029Z,73.56
2018-02-06T18:16:24.111Z,73.78
2018-02-06T18:18:50.322Z,74.07
2018-02-06T18:21:16.462Z,73.92
2018-02-06T18:23:42.913Z,73.57
2018-02-06T18:26:09.006Z,73.99
2018-02-06T18:28:35.005Z,74.03
2018-02-06T18:31:01.223Z,74.22
2018-02-06T18:33:27.279Z,74.39
2018-02-06T18:35:53.656Z,74.35
2018-02-06T18:38:19.835Z,74.59
2018-02-06T18:40:45.897Z,74.50
2018-02-06T18:43:11.993Z,75.07
2018-02-06T18:45:38.092Z,75.10
2018-02-06T18:48:04.114Z,75.49
2018-02-06T18:50:30.170Z,75.12
2018-02-06T18:52:56.313Z,75.13
2018-02-06T18:55:22.376Z,75.38
2018-02-06T18:57:48.774Z,75.70
2018-02-06T19:00:14.820Z,76.05
2018-02-06T19:02:41.022Z,76.22
2018-02-06T19:05:07.097Z,76.31
2018-02-06T19:07:33.236Z,76.41
2018-02-06T19:09:59.290Z,76.62
2018-02-06T19:12:25.733Z,76.49
2018-02-06T19:14:52.112Z,76.50
2018-02-06T19:17:18.169Z,76.96
2018-02-06T19:19:44.260Z,77.04
2018-02-06T19:22:10.384Z,77.28
2018-02-06T19:24:36.669Z,77.13
2018-02-06T19:27:02.814Z,77.31
2018-02-06T19:29:29.317Z,77.46
2018-02-06T19:31:55.405Z,77.81
2018-02-06T19:34:21.429Z,78.02
2018-02-06T19:36:49.312Z,78.54
2018-02-06T19:39:15.373Z,78.71
2018-02-06T19:41:42.425Z,78.13
2018-02-06T19:44:08.562Z,78.29
2018-02-06T19:46:34.674Z,78.47
2018-02-06T19:49:00.743Z,78.33
2018-02-06T19:51:27.879Z,78.45
2018-02-06T19:53:53.970Z,78.79
2018-02-06T19:56:19.993Z,78.80
2018-02-06T19:58:47.433Z,78.93
2018-02-06T20:01:14.527Z,78.71
2018-02-06T20:03:41.098Z,78.66
2018-02-06T20:06:07.136Z,78.66
2018-02-06T20:08:33.198Z,78.72
2018-02-06T20:10:59.321Z,78.59
2018-02-06T20:13:26.444Z,78.60
2018-02-06T20:15:52.884Z,78.66
2018-02-06T20:18:18.925Z,79.15
2018-02-06T20:20:45.098Z,78.97
2018-02-06T20:23:12.165Z,78.91
2018-02-06T20:25:38.293Z,78.87
2018-02-06T20:28:04.399Z,78.97
2018-02-06T20:30:30.461Z,79.96
2018-02-06T20:32:56.530Z,80.86
2018-02-06T20:35:22.618Z,80.48
2018-02-06T20:37:48.702Z,80.30
2018-02-06T20:40:14.824Z,80.25
2018-02-06T20:42:40.856Z,80.18
2018-02-06T20:45:07.341Z,80.67
2018-02-06T20:47:33.390Z,80.69
2018-02-06T20:49:59.346Z,80.80
2018-02-06T20:52:26.433Z,80.82
2018-02-06T20:54:52.475Z,80.81
2018-02-06T20:57:18.548Z,80.69
2018-02-06T20:59:44.667Z,81.63
2018-02-06T21:02:10.707Z,83.16
2018-02-06T21:04:36.721Z,83.17
2018-02-06T21:07:02.764Z,82.81
2018-02-06T21:09:29.139Z,82.40
2018-02-06T21:11:55.184Z,82.25
2018-02-06T21:14:21.643Z,82.41
2018-02-06T21:16:47.657Z,82.23
2018-02-06T21:19:13.695Z,82.00
2018-02-06T21:21:39.769Z,81.77
2018-02-06T21:24:05.853Z,81.88
2018-02-06T21:26:31.890Z,81.95
2018-02-06T21:28:57.975Z,81.71
2018-02-06T21:31:24.407Z,82.42
2018-02-06T21:33:50.333Z,83.01
2018-02-06T21:36:16.396Z,84.15
2018-02-06T21:38:42.492Z,84.71
2018-02-06T21:41:08.524Z,84.30
2018-02-06T21:43:34.509Z,84.49
2018-02-06T21:46:00.566Z,84.48
2018-02-06T21:48:26.960Z,85.17
2018-02-06T21:50:53.016Z,85.51
2018-02-06T21:53:19.050Z,85.40
2018-02-06T21:55:45.106Z,85.17
2018-02-06T21:58:11.148Z,84.59
2018-02-06T22:00:37.271Z,84.10
2018-02-06T22:03:03.264Z,83.60
2018-02-06T22:05:29.606Z,83.89
2018-02-06T22:07:55.680Z,84.03
2018-02-06T22:10:21.709Z,84.02
2018-02-06T22:12:47.847Z,83.65
2018-02-06T22:15:13.877Z,83.55
2018-02-06T22:17:39.954Z,83.57
2018-02-06T22:20:05.992Z,83.84
2018-02-06T22:22:32.443Z,84.21
2018-02-06T22:24:58.508Z,84.70
2018-02-06T22:27:24.601Z,84.75
2018-02-06T22:29:50.622Z,85.00
2018-02-06T22:32:16.622Z,85.64
2018-02-06T22:34:42.641Z,86.23
2018-02-06T22:37:08.686Z,86.26
2018-02-06T22:39:35.138Z,86.60
2018-02-06T22:42:01.154Z,86.46
2018-02-06T22:44:27.196Z,86.43
2018-02-06T22:46:53.362Z,86.36
2018-02-06T22:49:19.411Z,86.23
2018-02-06T22:51:45.434Z,85.89
2018-02-06T22:54:11.445Z,85.93
2018-02-06T22:56:37.485Z,86.01
2018-02-06T22:59:03.499Z,85.78
2018-02-06T23:01:29.522Z,85.62
2018-02-06T23:03:55.562Z,85.78
2018-02-06T23:06:21.645Z,85.70
2018-02-06T23:08:48.044Z,85.88
2018-02-06T23:11:14.055Z,85.61
2018-02-06T23:13:40.055Z,85.61
2018-02-06T23:16:06.083Z,85.93
2018-02-06T23:18:32.093Z,86.08
2018-02-06T23:20:58.173Z,86.20
2018-02-06T23:23:24.197Z,85.65
2018-02-06T23:25:50.222Z,85.76
2018-02-06T23:28:16.290Z,86.12
2018-02-06T23:30:42.601Z,86.27
2018-02-06T23:33:08.646Z,86.16
2018-02-06T23:35:34.677Z,85.83
2018-02-06T23:38:00.729Z,85.68
2018-02-06T23:40:26.777Z,85.18
2018-02-06T23:42:52.845Z,85.11
2018-02-06T23:45:18.873Z,84.98
2018-02-06T23:47:44.899Z,85.35
2018-02-06T23:50:10.923Z,85.23
2018-02-06T23:52:36.952Z,84.88
2018-02-06T23:55:03.336Z,84.67
2018-02-06T23:57:29.769Z,84.33
2018-02-06T23:59:55.792Z,84.12
